sensor_id;sensor_type;location;lat;lon;timestamp;pressure;altitude;pressure_sealevel;temperature;humidity
55664;BME280;41540;57.880;12.164;2022-09-16T00:07:41;97833.66;;;9.69;100.00
55664;BME280;41540;57.880;12.164;2022-09-16T00:17:41;97831.50;;;9.88;100.00
55664;BME280;41540;57.880;12.164;2022-09-16T00:27:42;97821.41;;;9.77;100.00
55664;BME280;41540;57.880;12.164;2022-09-16T00:37:42;97777.78;;;9.63;100.00
55664;BME280;41540;57.880;12.164;2022-09-16T00:47:50;97740.59;;;9.31;100.00
55664;BME280;41540;57.880;12.164;2022-09-16T00:57:52;97853.53;;;9.67;100.00
55664;BME280;41540;57.880;12.164;2022-09-16T01:07:56;97905.50;;;9.95;100.00
55664;BME280;41540;57.880;12.164;2022-09-16T01:48:43;97866.00;;;9.48;100.00
55664;BME280;41540;57.880;12.164;2022-09-16T02:09:03;97823.84;;;9.04;100.00
55664;BME280;41540;57.880;12.164;2022-09-16T02:19:09;97749.19;;;8.48;100.00
55664;BME280;41540;57.880;12.164;2022-09-16T02:29:15;97906.88;;;9.27;100.00
55664;BME280;41540;57.880;12.164;2022-09-16T02:39:20;97894.34;;;9.07;100.00
55664;BME280;41540;57.880;12.164;2022-09-16T02:59:52;97935.25;;;8.82;100.00
55664;BME280;41540;57.880;12.164;2022-09-16T03:09:53;97870.47;;;8.46;100.00
55664;BME280;41540;57.880;12.164;2022-09-16T03:30:22;97947.06;;;8.95;100.00
55664;BME280;41540;57.880;12.164;2022-09-16T03:40:23;97966.63;;;9.09;100.00
55664;BME280;41540;57.880;12.164;2022-09-16T03:50:24;97823.72;;;8.12;100.00
55664;BME280;41540;57.880;12.164;2022-09-16T04:00:24;97950.06;;;8.71;100.00
55664;BME280;41540;57.880;12.164;2022-09-16T04:10:24;97840.28;;;7.97;100.00
55664;BME280;41540;57.880;12.164;2022-09-16T04:20:25;97884.06;;;8.02;100.00
55664;BME280;41540;57.880;12.164;2022-09-16T04:30:26;97987.50;;;8.40;100.00
55664;BME280;41540;57.880;12.164;2022-09-16T04:40:26;97837.69;;;7.39;100.00
55664;BME280;41540;57.880;12.164;2022-09-16T04:50:26;97969.09;;;8.05;100.00
55664;BME280;41540;57.880;12.164;2022-09-16T05:00:27;97927.28;;;7.83;100.00
55664;BME280;41540;57.880;12.164;2022-09-16T05:10:27;97866.78;;;8.63;100.00
55664;BME280;41540;57.880;12.164;2022-09-16T05:20:27;97881.56;;;8.53;100.00
55664;BME280;41540;57.880;12.164;2022-09-16T05:30:28;97949.75;;;8.33;100.00
55664;BME280;41540;57.880;12.164;2022-09-16T05:40:28;97936.16;;;8.22;100.00
55664;BME280;41540;57.880;12.164;2022-09-16T05:50:28;97940.72;;;8.05;100.00
55664;BME280;41540;57.880;12.164;2022-09-16T06:00:29;97951.97;;;7.99;100.00
55664;BME280;41540;57.880;12.164;2022-09-16T06:10:29;97871.28;;;7.30;100.00
55664;BME280;41540;57.880;12.164;2022-09-16T06:20:30;97940.91;;;7.92;100.00
55664;BME280;41540;57.880;12.164;2022-09-16T06:30:30;98001.53;;;8.21;100.00
55664;BME280;41540;57.880;12.164;2022-09-16T06:40:31;97924.66;;;7.86;100.00
55664;BME280;41540;57.880;12.164;2022-09-16T06:50:31;98050.44;;;8.92;100.00
55664;BME280;41540;57.880;12.164;2022-09-16T07:00:31;98026.19;;;9.49;100.00
55664;BME280;41540;57.880;12.164;2022-09-16T07:10:32;97976.50;;;9.79;100.00
55664;BME280;41540;57.880;12.164;2022-09-16T07:20:32;98049.66;;;10.27;100.00
55664;BME280;41540;57.880;12.164;2022-09-16T07:30:32;97977.53;;;10.12;100.00
55664;BME280;41540;57.880;12.164;2022-09-16T07:40:33;97942.44;;;10.39;100.00
55664;BME280;41540;57.880;12.164;2022-09-16T07:50:34;97972.72;;;10.73;100.00
55664;BME280;41540;57.880;12.164;2022-09-16T08:00:34;97985.00;;;10.65;100.00
55664;BME280;41540;57.880;12.164;2022-09-16T08:10:36;97978.50;;;15.27;100.00
55664;BME280;41540;57.880;12.164;2022-09-16T08:20:36;97938.41;;;17.67;100.00
55664;BME280;41540;57.880;12.164;2022-09-16T08:30:37;98042.53;;;19.69;nan
55664;BME280;41540;57.880;12.164;2022-09-16T08:40:42;98039.59;;;20.89;nan
55664;BME280;41540;57.880;12.164;2022-09-16T08:50:45;98169.94;;;19.92;nan
55664;BME280;41540;57.880;12.164;2022-09-16T09:01:24;98177.59;;;19.19;nan
55664;BME280;41540;57.880;12.164;2022-09-16T09:42:17;97987.53;;;16.94;nan
55664;BME280;41540;57.880;12.164;2022-09-16T09:52:27;98075.09;;;16.47;nan
55664;BME280;41540;57.880;12.164;2022-09-16T10:02:30;98061.97;;;17.04;nan
55664;BME280;41540;57.880;12.164;2022-09-16T10:12:33;98151.56;;;16.51;nan
55664;BME280;41540;57.880;12.164;2022-09-16T10:22:34;98104.25;;;16.95;nan
55664;BME280;41540;57.880;12.164;2022-09-16T10:33:03;98228.66;;;16.61;nan
55664;BME280;41540;57.880;12.164;2022-09-16T10:43:06;98232.63;;;17.09;nan
55664;BME280;41540;57.880;12.164;2022-09-16T10:53:21;98215.88;;;17.13;nan
55664;BME280;41540;57.880;12.164;2022-09-16T11:03:47;98187.00;;;15.96;nan
55664;BME280;41540;57.880;12.164;2022-09-16T11:34:42;98338.19;;;17.27;nan
55664;BME280;41540;57.880;12.164;2022-09-16T11:55:32;98429.09;;;15.69;nan
55664;BME280;41540;57.880;12.164;2022-09-16T12:05:41;98314.03;;;15.30;nan
55664;BME280;41540;57.880;12.164;2022-09-16T12:15:49;98404.31;;;17.31;nan
55664;BME280;41540;57.880;12.164;2022-09-16T12:36:17;98361.25;;;15.46;nan
55664;BME280;41540;57.880;12.164;2022-09-16T13:07:27;98499.91;;;15.85;nan
55664;BME280;41540;57.880;12.164;2022-09-16T13:17:36;98426.47;;;15.46;nan
55664;BME280;41540;57.880;12.164;2022-09-16T13:27:39;98466.75;;;16.33;nan
55664;BME280;41540;57.880;12.164;2022-09-16T13:37:39;98455.16;;;16.84;nan
55664;BME280;41540;57.880;12.164;2022-09-16T13:47:47;98499.59;;;16.62;nan
55664;BME280;41540;57.880;12.164;2022-09-16T14:08:19;98513.56;;;15.43;nan
55664;BME280;41540;57.880;12.164;2022-09-16T14:18:28;98422.66;;;15.79;nan
55664;BME280;41540;57.880;12.164;2022-09-16T14:28:30;98496.28;;;16.79;nan
55664;BME280;41540;57.880;12.164;2022-09-16T14:38:43;98496.50;;;15.83;nan
55664;BME280;41540;57.880;12.164;2022-09-16T14:48:45;98379.41;;;15.00;nan
55664;BME280;41540;57.880;12.164;2022-09-16T14:58:45;98405.22;;;15.56;nan
55664;BME280;41540;57.880;12.164;2022-09-16T15:09:02;98416.84;;;15.48;nan
55664;BME280;41540;57.880;12.164;2022-09-16T15:19:04;98483.25;;;15.88;nan
55664;BME280;41540;57.880;12.164;2022-09-16T15:39:37;98404.28;;;15.34;nan
55664;BME280;41540;57.880;12.164;2022-09-16T15:49:38;98408.28;;;15.68;nan
55664;BME280;41540;57.880;12.164;2022-09-16T16:09:41;98505.47;;;14.99;nan
55664;BME280;41540;57.880;12.164;2022-09-16T16:19:43;98497.28;;;14.55;nan
55664;BME280;41540;57.880;12.164;2022-09-16T16:29:44;98372.38;;;13.69;nan
55664;BME280;41540;57.880;12.164;2022-09-16T16:39:45;98349.22;;;13.59;nan
55664;BME280;41540;57.880;12.164;2022-09-16T16:49:45;98438.53;;;13.90;nan
55664;BME280;41540;57.880;12.164;2022-09-16T16:59:46;98433.53;;;13.52;nan
55664;BME280;41540;57.880;12.164;2022-09-16T17:09:46;98272.41;;;12.21;nan
55664;BME280;41540;57.880;12.164;2022-09-16T17:19:48;98291.25;;;11.95;nan
55664;BME280;41540;57.880;12.164;2022-09-16T17:29:48;98397.38;;;12.05;nan
55664;BME280;41540;57.880;12.164;2022-09-16T17:39:49;98420.53;;;11.74;nan
55664;BME280;41540;57.880;12.164;2022-09-16T17:49:49;98421.88;;;11.50;nan
55664;BME280;41540;57.880;12.164;2022-09-16T17:59:50;98328.44;;;10.67;nan
55664;BME280;41540;57.880;12.164;2022-09-16T18:09:50;98403.94;;;10.94;nan
55664;BME280;41540;57.880;12.164;2022-09-16T18:19:50;98439.34;;;10.95;nan
55664;BME280;41540;57.880;12.164;2022-09-16T18:29:51;98430.94;;;10.81;nan
55664;BME280;41540;57.880;12.164;2022-09-16T18:39:51;98381.72;;;10.31;nan
55664;BME280;41540;57.880;12.164;2022-09-16T18:49:51;98390.31;;;10.33;nan
55664;BME280;41540;57.880;12.164;2022-09-16T18:59:52;98445.66;;;10.23;nan
55664;BME280;41540;57.880;12.164;2022-09-16T19:09:52;98357.00;;;9.51;nan
55664;BME280;41540;57.880;12.164;2022-09-16T19:19:53;98435.84;;;9.83;nan
55664;BME280;41540;57.880;12.164;2022-09-16T19:29:54;98277.75;;;9.50;nan
55664;BME280;41540;57.880;12.164;2022-09-16T19:39:54;98278.88;;;9.30;nan
55664;BME280;41540;57.880;12.164;2022-09-16T19:49:54;98279.44;;;8.87;nan
55664;BME280;41540;57.880;12.164;2022-09-16T19:59:57;98199.94;;;8.39;nan
55664;BME280;41540;57.880;12.164;2022-09-16T20:09:57;98269.31;;;8.67;nan
55664;BME280;41540;57.880;12.164;2022-09-16T20:19:57;98294.28;;;8.68;nan
55664;BME280;41540;57.880;12.164;2022-09-16T20:29:58;98238.66;;;8.39;nan
55664;BME280;41540;57.880;12.164;2022-09-16T20:39:58;98314.94;;;8.65;nan
55664;BME280;41540;57.880;12.164;2022-09-16T20:49:58;98339.06;;;8.64;nan
55664;BME280;41540;57.880;12.164;2022-09-16T20:59:59;98224.56;;;7.81;nan
55664;BME280;41540;57.880;12.164;2022-09-16T21:10:00;98351.22;;;8.53;nan
55664;BME280;41540;57.880;12.164;2022-09-16T21:20:01;98274.28;;;7.97;nan
55664;BME280;41540;57.880;12.164;2022-09-16T21:30:01;98344.53;;;8.26;nan
55664;BME280;41540;57.880;12.164;2022-09-16T21:40:03;98363.41;;;8.34;nan
55664;BME280;41540;57.880;12.164;2022-09-16T21:50:03;98238.66;;;7.36;nan
55664;BME280;41540;57.880;12.164;2022-09-16T22:00:05;98347.47;;;7.79;nan
55664;BME280;41540;57.880;12.164;2022-09-16T22:10:06;98273.88;;;7.32;nan
55664;BME280;41540;57.880;12.164;2022-09-16T22:20:06;98381.75;;;7.92;nan
55664;BME280;41540;57.880;12.164;2022-09-16T22:30:08;98245.66;;;7.15;nan
55664;BME280;41540;57.880;12.164;2022-09-16T22:40:08;98404.94;;;7.95;nan
55664;BME280;41540;57.880;12.164;2022-09-16T22:50:09;98286.91;;;7.05;nan
55664;BME280;41540;57.880;12.164;2022-09-16T23:00:10;98407.63;;;7.77;nan
55664;BME280;41540;57.880;12.164;2022-09-16T23:10:10;98339.16;;;7.23;nan
55664;BME280;41540;57.880;12.164;2022-09-16T23:20:11;98351.19;;;7.26;nan
55664;BME280;41540;57.880;12.164;2022-09-16T23:30:11;98318.66;;;6.99;nan
55664;BME280;41540;57.880;12.164;2022-09-16T23:40:12;98314.44;;;6.86;nan
55664;BME280;41540;57.880;12.164;2022-09-16T23:50:12;98365.00;;;7.00;nan
